createdAt,value
2023-02-03T00:01:20.959Z,100038.19
2023-02-03T00:06:28.673Z,100036.11
2023-02-03T00:11:37.041Z,100043.21
2023-02-03T00:16:45.266Z,100044.08
2023-02-03T00:21:53.686Z,100048.75
2023-02-03T00:27:01.950Z,100060.20
2023-02-03T00:32:10.778Z,100060.36
2023-02-03T00:37:19.520Z,100047.88
2023-02-03T00:42:26.883Z,100044.77
2023-02-03T00:47:35.162Z,100045.98
2023-02-03T00:52:42.509Z,100040.80
2023-02-03T00:57:50.148Z,100037.50
2023-02-03T01:02:58.247Z,100041.48
2023-02-03T01:08:06.893Z,100042.34
2023-02-03T01:13:15.128Z,100033.85
2023-02-03T01:18:23.789Z,100031.08
2023-02-03T01:23:32.281Z,100035.40
2023-02-03T01:28:40.947Z,100032.10
2023-02-03T01:33:49.821Z,100025.70
2023-02-03T01:38:58.862Z,100029.67
2023-02-03T01:44:41.363Z,100033.83
2023-02-03T01:49:51.424Z,100040.40
2023-02-03T01:55:02.502Z,100041.95
2023-02-03T02:00:13.064Z,100033.29
2023-02-03T02:05:32.339Z,100031.05
2023-02-03T02:10:40.202Z,100030.35
2023-02-03T02:15:56.900Z,100024.11
2023-02-03T02:21:24.489Z,100023.77
2023-02-03T02:26:58.838Z,100013.73
2023-02-03T02:32:17.481Z,100003.88
2023-02-03T02:37:33.292Z,99999.02
2023-02-03T02:42:55.325Z,99996.95
2023-02-03T02:48:11.444Z,99991.58
2023-02-03T02:53:22.197Z,99994.36
2023-02-03T02:58:33.973Z,99997.14
2023-02-03T03:03:45.014Z,99990.73
2023-02-03T03:08:58.670Z,99984.33
2023-02-03T03:14:08.334Z,99989.34
2023-02-03T03:19:20.982Z,99989.68
2023-02-03T03:24:33.103Z,99986.73
2023-02-03T03:29:48.775Z,99988.82
2023-02-03T03:34:57.197Z,99992.27
2023-02-03T03:40:11.589Z,99998.33
2023-02-03T03:45:25.862Z,100001.79
2023-02-03T03:50:37.081Z,100002.99
2023-02-03T03:55:49.990Z,99998.83
2023-02-03T04:01:02.573Z,99991.56
2023-02-03T04:06:11.711Z,99993.64
2023-02-03T04:11:34.134Z,99995.19
2023-02-03T04:16:42.459Z,99991.89
2023-02-03T04:21:50.813Z,99989.79
2023-02-03T04:26:59.015Z,99988.39
2023-02-03T04:32:07.783Z,99980.41
2023-02-03T04:37:16.267Z,99977.09
2023-02-03T04:42:25.156Z,99971.52
2023-02-03T04:47:33.378Z,99962.13
2023-02-03T04:52:41.623Z,99960.18
2023-02-03T04:57:49.952Z,99961.34
2023-02-03T05:02:58.352Z,99955.92
2023-02-03T05:08:07.251Z,99947.40
2023-02-03T05:13:16.490Z,99944.77
2023-02-03T05:18:24.870Z,99937.80
2023-02-03T05:23:35.471Z,99928.41
2023-02-03T05:28:46.230Z,99924.55
2023-02-03T05:33:54.890Z,99923.12
2023-02-03T05:39:02.606Z,99922.38
2023-02-03T05:44:10.219Z,99911.98
2023-02-03T05:49:19.997Z,99910.55
2023-02-03T05:54:28.578Z,99902.23
2023-02-03T05:59:35.977Z,99902.89
2023-02-03T06:04:43.229Z,99903.38
2023-02-03T06:09:51.594Z,99900.75
2023-02-03T06:15:00.089Z,99903.82
2023-02-03T06:20:10.748Z,99901.53
2023-02-03T06:25:19.121Z,99895.97
2023-02-03T06:30:27.708Z,99897.66
2023-02-03T06:35:36.510Z,99896.06
2023-02-03T06:40:44.922Z,99889.48
2023-02-03T06:45:53.109Z,99885.16
2023-02-03T06:51:01.988Z,99879.97
2023-02-03T06:56:10.604Z,99878.56
2023-02-03T07:01:19.084Z,99862.88
2023-02-03T07:06:29.650Z,99847.70
2023-02-03T07:11:38.909Z,99828.05
2023-02-03T07:16:47.126Z,99818.43
2023-02-03T07:21:55.210Z,99809.64
2023-02-03T07:27:04.586Z,99802.43
2023-02-03T07:32:12.564Z,99796.08
2023-02-03T07:37:20.234Z,99783.35
2023-02-03T07:42:27.850Z,99774.23
2023-02-03T07:47:37.262Z,99774.58
2023-02-03T07:52:44.838Z,99775.65
2023-02-03T07:57:52.408Z,99768.61
2023-02-03T08:03:00.783Z,99763.46
2023-02-03T08:08:09.237Z,99753.31
2023-02-03T08:13:18.096Z,99742.30
2023-02-03T08:18:26.723Z,99739.92
2023-02-03T08:23:34.966Z,99731.86
2023-02-03T08:28:43.219Z,99723.95
2023-02-03T08:33:51.409Z,99713.61
2023-02-03T08:39:00.213Z,99703.09
2023-02-03T08:44:08.829Z,99697.25
2023-02-03T08:49:16.914Z,99687.23
2023-02-03T08:54:25.753Z,99667.20
2023-02-03T08:59:36.436Z,99677.73
2023-02-03T09:04:44.888Z,99671.86
2023-02-03T09:09:54.282Z,99664.08
2023-02-03T09:15:02.902Z,99655.40
2023-02-03T09:20:13.810Z,99640.02
2023-02-03T09:25:21.288Z,99635.33
2023-02-03T09:30:29.781Z,99621.29
2023-02-03T09:35:38.695Z,99616.26
2023-02-03T09:40:49.165Z,99615.36
2023-02-03T09:45:56.630Z,99601.50
2023-02-03T09:51:04.312Z,99579.67
2023-02-03T09:56:20.532Z,99564.23
2023-02-03T10:01:33.519Z,99549.14
2023-02-03T10:06:45.321Z,99535.80
2023-02-03T10:12:07.829Z,99525.39
2023-02-03T10:17:29.561Z,99509.26
2023-02-03T10:22:43.034Z,99497.11
2023-02-03T10:27:51.605Z,99484.10
2023-02-03T10:33:04.066Z,99478.38
2023-02-03T10:38:21.774Z,99459.48
2023-02-03T10:43:50.463Z,99446.27
2023-02-03T10:48:59.852Z,99432.91
2023-02-03T10:54:23.946Z,99421.27
2023-02-03T10:59:35.828Z,99408.77
2023-02-03T11:04:44.054Z,99392.98
2023-02-03T11:09:52.563Z,99375.96
2023-02-03T11:15:17.257Z,99363.63
2023-02-03T11:20:28.132Z,99353.36
2023-02-03T11:25:36.978Z,99342.58
2023-02-03T11:30:44.536Z,99329.38
2023-02-03T11:36:00.916Z,99321.70
2023-02-03T11:41:16.975Z,99318.88
2023-02-03T11:46:25.838Z,99300.96
2023-02-03T11:51:43.807Z,99291.75
2023-02-03T11:57:18.662Z,99286.67
2023-02-03T12:03:00.139Z,99277.47
2023-02-03T12:08:20.329Z,99262.35
2023-02-03T12:13:49.510Z,99249.83
2023-02-03T12:19:11.567Z,99228.15
2023-02-03T12:24:24.630Z,99216.17
2023-02-03T12:29:39.077Z,99205.42
2023-02-03T12:34:52.477Z,99195.36
2023-02-03T12:40:05.500Z,99179.40
2023-02-03T12:45:20.354Z,99174.53
2023-02-03T12:50:34.494Z,99165.14
2023-02-03T12:55:45.857Z,99162.69
2023-02-03T13:01:00.474Z,99153.84
2023-02-03T13:06:18.460Z,99142.23
2023-02-03T13:11:32.199Z,99129.39
2023-02-03T13:16:45.608Z,99122.64
2023-02-03T13:21:54.439Z,99117.95
2023-02-03T13:27:22.781Z,99107.21
2023-02-03T13:32:46.798Z,99094.20
2023-02-03T13:38:29.715Z,99095.59
2023-02-03T13:43:41.405Z,99091.61
2023-02-03T13:48:50.740Z,99090.91
2023-02-03T13:54:04.730Z,99090.21
2023-02-03T13:59:33.496Z,99087.27
2023-02-03T14:04:58.569Z,99068.91
2023-02-03T14:10:23.813Z,99080.55
2023-02-03T14:15:40.173Z,99075.52
2023-02-03T14:21:08.061Z,99067.23
2023-02-03T14:26:41.756Z,99058.59
2023-02-03T14:32:03.025Z,99052.75
2023-02-03T14:37:33.124Z,99053.10
2023-02-03T14:43:19.142Z,99052.95
2023-02-03T14:48:45.064Z,99056.96
2023-02-03T14:54:19.410Z,99051.27
2023-02-03T14:59:33.408Z,99044.54
2023-02-03T15:04:41.168Z,99038.84
2023-02-03T15:09:51.827Z,99035.56
2023-02-03T15:15:21.786Z,99032.11
2023-02-03T15:20:50.023Z,99028.15
2023-02-03T15:26:02.894Z,99029.03
2023-02-03T15:31:20.429Z,99023.70
2023-02-03T15:36:42.287Z,99015.92
2023-02-03T15:41:57.541Z,99012.29
2023-02-03T15:47:09.505Z,99005.73
2023-02-03T15:52:22.860Z,98999.85
2023-02-03T15:57:35.087Z,98992.27
2023-02-03T16:02:47.795Z,98993.51
2023-02-03T16:07:56.507Z,99005.48
2023-02-03T16:13:25.903Z,99011.40
2023-02-03T16:18:36.398Z,99021.65
2023-02-03T16:23:54.186Z,99023.42
2023-02-03T16:29:35.718Z,99032.10
2023-02-03T16:35:01.833Z,99038.20
2023-02-03T16:40:30.928Z,99043.94
2023-02-03T16:45:56.734Z,99051.40
2023-02-03T16:51:13.772Z,99061.30
2023-02-03T16:56:21.419Z,99080.88
2023-02-03T17:01:32.877Z,99084.70
2023-02-03T17:06:44.517Z,99092.86
2023-02-03T17:11:54.043Z,99098.75
2023-02-03T17:17:02.973Z,99103.27
2023-02-03T17:22:14.730Z,99105.00
2023-02-03T17:27:22.490Z,99109.67
2023-02-03T17:32:31.516Z,99111.07
2023-02-03T17:37:40.236Z,99103.80
2023-02-03T17:53:41.471Z,99121.82
2023-02-03T17:58:49.405Z,99129.63
2023-02-03T18:03:59.366Z,99135.01
2023-02-03T18:09:08.427Z,99139.88
2023-02-03T18:14:18.531Z,99147.69
2023-02-03T18:19:26.035Z,99150.12
2023-02-03T18:24:34.255Z,99151.86
2023-02-03T18:29:42.818Z,99159.67
2023-02-03T18:34:51.225Z,99156.23
2023-02-03T18:40:01.288Z,99155.89
2023-02-03T18:45:11.316Z,99156.62
2023-02-03T18:50:19.908Z,99164.23
2023-02-03T18:55:28.820Z,99164.45
2023-02-03T19:00:37.442Z,99158.91
2023-02-03T19:05:46.700Z,99161.37
2023-02-03T19:10:56.508Z,99159.84
2023-02-03T19:16:05.178Z,99174.59
2023-02-03T19:21:15.134Z,99185.19
2023-02-03T19:26:23.658Z,99192.17
2023-02-03T19:31:31.809Z,99199.78
2023-02-03T19:36:40.754Z,99209.50
2023-02-03T19:41:49.666Z,99215.75
2023-02-03T19:46:58.077Z,99221.98
2023-02-03T19:52:09.499Z,99229.10
2023-02-03T19:57:19.171Z,99237.42
2023-02-03T20:02:27.764Z,99232.92
2023-02-03T20:07:36.430Z,99242.88
2023-02-03T20:12:44.607Z,99262.90
2023-02-03T20:17:52.670Z,99278.48
2023-02-03T20:23:01.208Z,99280.56
2023-02-03T20:28:13.788Z,99284.02
2023-02-03T20:33:21.638Z,99286.28
2023-02-03T20:38:29.266Z,99298.40
2023-02-03T20:43:38.411Z,99301.52
2023-02-03T20:48:46.516Z,99301.19
2023-02-03T20:53:53.976Z,99310.20
2023-02-03T20:59:02.103Z,99323.71
2023-02-03T21:04:33.752Z,99333.42
2023-02-03T21:09:41.223Z,99343.99
2023-02-03T21:14:50.855Z,99359.40
2023-02-03T21:20:00.060Z,99380.70
2023-02-03T21:25:26.062Z,99395.25
2023-02-03T21:30:35.530Z,99410.32
2023-02-03T21:35:44.259Z,99426.77
2023-02-03T21:40:54.319Z,99444.59
2023-02-03T21:46:03.217Z,99454.65
2023-02-03T21:51:19.377Z,99474.75
2023-02-03T21:56:29.188Z,99491.20
2023-02-03T22:01:39.562Z,99502.98
2023-02-03T22:06:49.529Z,99515.61
2023-02-03T22:11:57.938Z,99527.55
2023-02-03T22:17:06.161Z,99541.92
2023-02-03T22:22:13.972Z,99554.04
2023-02-03T22:27:22.744Z,99567.37
2023-02-03T22:32:31.082Z,99583.14
2023-02-03T22:37:39.201Z,99589.38
2023-02-03T22:42:48.315Z,99597.50
2023-02-03T22:47:57.605Z,99605.64
2023-02-03T22:53:07.369Z,99616.73
2023-02-03T22:58:15.484Z,99625.88
2023-02-03T23:03:23.493Z,99634.73
2023-02-03T23:08:31.621Z,99639.05
2023-02-03T23:13:40.471Z,99653.59
2023-02-03T23:18:48.894Z,99658.44
2023-02-03T23:23:57.076Z,99673.50
2023-02-03T23:29:06.026Z,99686.83
2023-02-03T23:34:31.297Z,99695.14
2023-02-03T23:39:39.503Z,99704.29
2023-02-03T23:44:44.777Z,99711.91
2023-02-03T23:49:53.076Z,99722.30
2023-02-03T23:55:01.412Z,99735.61
